createdAt,value
2023-05-19T00:02:05.552Z,56.40
2023-05-19T00:04:33.700Z,56.50
2023-05-19T00:07:01.346Z,56.40
2023-05-19T00:09:28.361Z,56.50
2023-05-19T00:11:56.597Z,56.50
2023-05-19T00:14:23.840Z,56.50
2023-05-19T00:16:50.750Z,56.40
2023-05-19T00:19:17.747Z,56.40
2023-05-19T00:21:44.579Z,56.40
2023-05-19T00:24:11.653Z,56.30
2023-05-19T00:26:38.643Z,56.30
2023-05-19T00:29:06.913Z,56.30
2023-05-19T00:31:36.662Z,56.30
2023-05-19T00:34:03.993Z,56.30
2023-05-19T00:36:31.188Z,56.30
2023-05-19T00:38:57.937Z,56.30
2023-05-19T00:41:24.739Z,56.20
2023-05-19T00:43:51.537Z,56.30
2023-05-19T00:46:19.393Z,56.30
2023-05-19T00:48:46.417Z,56.20
2023-05-19T00:51:16.568Z,56.20
2023-05-19T00:53:48.351Z,56.20
2023-05-19T00:56:16.666Z,56.20
2023-05-19T00:58:44.211Z,56.30
2023-05-19T01:01:12.128Z,56.30
2023-05-19T01:03:40.770Z,56.40
2023-05-19T01:06:08.359Z,56.40
2023-05-19T01:08:37.246Z,56.40
2023-05-19T01:11:05.077Z,56.40
2023-05-19T01:13:32.785Z,56.40
2023-05-19T01:16:01.665Z,56.40
2023-05-19T01:18:49.826Z,56.50
2023-05-19T01:21:37.220Z,56.50
2023-05-19T01:24:14.270Z,56.50
2023-05-19T01:26:41.042Z,56.50
2023-05-19T01:29:14.193Z,56.50
2023-05-19T01:31:42.032Z,56.60
2023-05-19T01:34:09.754Z,56.60
2023-05-19T01:36:37.081Z,56.60
2023-05-19T01:39:04.118Z,56.60
2023-05-19T01:41:32.398Z,56.60
2023-05-19T01:43:59.291Z,56.60
2023-05-19T01:46:26.247Z,56.60
2023-05-19T01:48:53.719Z,56.50
2023-05-19T01:51:20.546Z,56.50
2023-05-19T01:53:47.244Z,56.50
2023-05-19T01:56:16.636Z,56.50
2023-05-19T01:58:48.386Z,56.50
2023-05-19T02:01:47.783Z,56.50
2023-05-19T02:04:22.443Z,56.60
2023-05-19T02:07:01.525Z,56.60
2023-05-19T02:09:43.649Z,56.60
2023-05-19T02:12:17.622Z,56.60
2023-05-19T02:14:54.818Z,56.60
2023-05-19T02:17:23.342Z,56.60
2023-05-19T02:19:50.986Z,56.50
2023-05-19T02:22:17.863Z,56.50
2023-05-19T02:24:46.591Z,56.50
2023-05-19T02:27:13.456Z,56.50
2023-05-19T02:29:40.168Z,56.50
2023-05-19T02:32:07.766Z,56.50
2023-05-19T02:34:34.682Z,56.50
2023-05-19T02:37:04.852Z,56.60
2023-05-19T02:39:35.326Z,56.60
2023-05-19T02:42:02.527Z,56.50
2023-05-19T02:44:29.518Z,56.60
2023-05-19T02:46:57.237Z,56.60
2023-05-19T02:49:24.509Z,56.60
2023-05-19T02:51:51.361Z,56.70
2023-05-19T02:54:18.407Z,56.80
2023-05-19T02:56:45.275Z,56.80
2023-05-19T02:59:12.016Z,56.70
2023-05-19T03:01:40.463Z,56.70
2023-05-19T03:04:07.783Z,56.70
2023-05-19T03:06:34.745Z,56.60
2023-05-19T03:09:01.416Z,56.70
2023-05-19T03:11:29.576Z,56.70
2023-05-19T03:13:56.580Z,56.70
2023-05-19T03:16:23.439Z,56.80
2023-05-19T03:18:51.073Z,56.80
2023-05-19T03:21:17.938Z,56.80
2023-05-19T03:23:44.807Z,56.90
2023-05-19T03:26:11.945Z,56.80
2023-05-19T03:28:39.420Z,56.80
2023-05-19T03:31:06.408Z,56.90
2023-05-19T03:33:37.980Z,56.90
2023-05-19T03:36:05.511Z,57.00
2023-05-19T03:38:36.808Z,57.10
2023-05-19T03:41:04.076Z,57.10
2023-05-19T03:43:31.795Z,57.00
2023-05-19T03:46:02.847Z,56.90
2023-05-19T03:48:59.468Z,57.00
2023-05-19T03:51:46.939Z,57.10
2023-05-19T03:54:32.265Z,57.10
2023-05-19T03:56:59.273Z,57.20
2023-05-19T03:59:26.012Z,57.20
2023-05-19T04:01:54.631Z,57.20
2023-05-19T04:04:21.996Z,57.20
2023-05-19T04:06:50.011Z,57.10
2023-05-19T04:09:17.005Z,57.70
2023-05-19T04:11:44.005Z,57.00
2023-05-19T04:14:11.272Z,57.00
2023-05-19T04:16:38.101Z,57.00
2023-05-19T04:19:05.036Z,57.10
2023-05-19T04:21:32.089Z,57.10
2023-05-19T04:24:00.159Z,57.00
2023-05-19T04:26:31.166Z,57.00
2023-05-19T04:28:58.231Z,57.20
2023-05-19T04:31:25.233Z,57.30
2023-05-19T04:33:53.385Z,57.40
2023-05-19T04:36:21.859Z,57.50
2023-05-19T04:38:54.886Z,57.70
2023-05-19T04:41:24.358Z,58.00
2023-05-19T04:43:51.260Z,58.30
2023-05-19T04:46:24.134Z,58.60
2023-05-19T04:48:53.361Z,58.80
2023-05-19T04:51:21.281Z,59.00
2023-05-19T04:53:49.388Z,59.30
2023-05-19T04:56:16.578Z,59.40
2023-05-19T04:58:44.896Z,59.60
2023-05-19T05:01:13.928Z,60.00
2023-05-19T05:03:42.337Z,60.50
2023-05-19T05:06:11.505Z,60.80
2023-05-19T05:08:40.528Z,60.90
2023-05-19T05:11:07.978Z,61.00
2023-05-19T05:13:35.296Z,61.10
2023-05-19T05:16:02.193Z,61.20
2023-05-19T05:18:29.370Z,61.40
2023-05-19T05:20:56.261Z,61.30
2023-05-19T05:23:26.148Z,61.30
2023-05-19T05:25:53.257Z,61.30
2023-05-19T05:28:20.435Z,61.50
2023-05-19T05:30:48.980Z,61.80
2023-05-19T05:33:16.341Z,61.80
2023-05-19T05:35:43.596Z,61.90
2023-05-19T05:38:15.597Z,61.80
2023-05-19T05:40:42.505Z,61.80
2023-05-19T05:43:10.036Z,61.80
2023-05-19T05:45:43.593Z,61.70
2023-05-19T05:48:11.437Z,61.60
2023-05-19T05:50:39.021Z,62.00
2023-05-19T05:53:06.756Z,61.80
2023-05-19T05:55:36.380Z,62.70
2023-05-19T05:58:04.133Z,61.70
2023-05-19T06:00:31.410Z,61.90
2023-05-19T06:02:59.424Z,62.40
2023-05-19T06:05:26.753Z,62.90
2023-05-19T06:07:54.866Z,64.10
2023-05-19T06:10:25.449Z,65.10
2023-05-19T06:12:53.770Z,65.00
2023-05-19T06:15:24.687Z,65.20
2023-05-19T06:18:05.753Z,64.70
2023-05-19T06:20:32.969Z,64.10
2023-05-19T06:23:00.743Z,63.60
2023-05-19T06:25:29.110Z,63.20
2023-05-19T06:27:57.620Z,62.90
2023-05-19T06:30:24.799Z,62.50
2023-05-19T06:33:03.866Z,62.50
2023-05-19T06:35:30.943Z,62.20
2023-05-19T06:37:58.349Z,61.80
2023-05-19T06:40:25.722Z,61.30
2023-05-19T06:42:53.874Z,61.20
2023-05-19T06:45:37.029Z,60.80
2023-05-19T06:48:05.051Z,60.60
2023-05-19T06:50:32.356Z,60.40
2023-05-19T06:52:59.593Z,60.30
2023-05-19T06:55:26.345Z,60.30
2023-05-19T06:57:53.303Z,60.20
2023-05-19T07:00:22.933Z,60.10
2023-05-19T07:02:52.398Z,59.80
2023-05-19T07:05:19.702Z,59.70
2023-05-19T07:07:51.110Z,59.50
2023-05-19T07:10:22.018Z,59.40
2023-05-19T07:12:50.310Z,59.40
2023-05-19T07:15:18.909Z,59.30
2023-05-19T07:17:46.003Z,59.20
2023-05-19T07:20:13.017Z,59.10
2023-05-19T07:22:40.293Z,59.10
2023-05-19T07:25:08.224Z,59.10
2023-05-19T07:27:35.227Z,59.10
2023-05-19T07:30:01.938Z,59.00
2023-05-19T07:32:28.705Z,59.00
2023-05-19T07:34:55.745Z,58.90
2023-05-19T07:37:22.603Z,58.90
2023-05-19T07:39:51.417Z,58.80
2023-05-19T07:42:18.135Z,58.80
2023-05-19T07:44:44.981Z,58.80
2023-05-19T07:47:11.887Z,58.70
2023-05-19T07:49:38.734Z,58.90
2023-05-19T07:52:05.806Z,58.90
2023-05-19T07:54:32.447Z,58.90
2023-05-19T07:56:59.429Z,59.20
2023-05-19T07:59:26.044Z,59.30
2023-05-19T08:01:52.845Z,60.00
2023-05-19T08:04:19.643Z,60.00
2023-05-19T08:06:46.556Z,59.70
2023-05-19T08:09:13.601Z,59.60
2023-05-19T08:11:40.944Z,59.90
2023-05-19T08:14:07.704Z,60.50
2023-05-19T08:16:34.471Z,60.70
2023-05-19T08:19:02.684Z,61.20
2023-05-19T08:21:29.789Z,61.50
2023-05-19T08:23:57.024Z,61.20
2023-05-19T08:26:23.921Z,61.10
2023-05-19T08:28:50.857Z,61.20
2023-05-19T08:31:18.385Z,61.10
2023-05-19T08:33:45.641Z,61.00
2023-05-19T08:36:12.497Z,60.90
2023-05-19T08:38:39.123Z,60.80
2023-05-19T08:41:06.187Z,60.60
2023-05-19T08:43:33.032Z,60.70
2023-05-19T08:46:00.204Z,60.60
2023-05-19T08:48:29.261Z,60.50
2023-05-19T08:51:00.795Z,60.30
2023-05-19T08:53:33.767Z,60.50
2023-05-19T08:56:04.129Z,60.40
2023-05-19T08:58:31.820Z,60.30
2023-05-19T09:00:59.574Z,60.30
2023-05-19T09:03:26.851Z,60.40
2023-05-19T09:05:53.849Z,60.40
2023-05-19T09:08:20.821Z,60.20
2023-05-19T09:10:47.726Z,59.90
2023-05-19T09:13:14.513Z,59.50
2023-05-19T09:15:42.201Z,58.80
2023-05-19T09:18:09.289Z,58.30
2023-05-19T09:20:43.455Z,58.20
2023-05-19T09:23:17.163Z,57.80
2023-05-19T09:25:50.837Z,57.50
2023-05-19T09:28:38.305Z,57.60
2023-05-19T09:31:06.201Z,57.60
2023-05-19T09:33:33.725Z,57.20
2023-05-19T09:36:01.281Z,56.80
2023-05-19T09:38:28.091Z,57.00
2023-05-19T09:40:58.729Z,57.10
2023-05-19T09:43:29.361Z,57.00
2023-05-19T09:46:15.703Z,56.60
2023-05-19T09:48:42.558Z,56.30
2023-05-19T09:51:12.460Z,56.20
2023-05-19T09:53:39.764Z,55.90
2023-05-19T09:56:08.704Z,54.40
2023-05-19T09:58:36.442Z,53.80
2023-05-19T10:01:04.284Z,53.00
2023-05-19T10:03:33.005Z,53.20
2023-05-19T10:06:01.351Z,53.70
2023-05-19T10:08:29.863Z,54.00
2023-05-19T10:10:56.942Z,54.30
2023-05-19T10:13:24.272Z,54.10
2023-05-19T10:18:22.950Z,53.70
2023-05-19T10:20:50.149Z,53.90
2023-05-19T10:23:17.099Z,54.30
2023-05-19T10:25:44.160Z,54.50
2023-05-19T10:28:16.625Z,54.90
2023-05-19T10:30:48.208Z,53.80
2023-05-19T10:33:19.811Z,53.80
2023-05-19T10:35:59.472Z,53.70
2023-05-19T10:38:34.129Z,53.70
2023-05-19T10:41:03.988Z,53.90
2023-05-19T10:43:37.051Z,53.10
2023-05-19T10:46:04.353Z,52.30
2023-05-19T10:48:34.003Z,52.10
2023-05-19T10:51:00.896Z,52.00
2023-05-19T10:53:31.894Z,52.40
2023-05-19T10:56:02.535Z,52.60
2023-05-19T10:58:39.621Z,52.50
2023-05-19T11:01:16.948Z,52.90
2023-05-19T11:03:50.084Z,52.90
2023-05-19T11:06:38.126Z,53.00
2023-05-19T11:09:11.392Z,53.00
2023-05-19T11:11:44.549Z,52.20
2023-05-19T11:14:12.953Z,52.40
2023-05-19T11:16:40.039Z,51.90
2023-05-19T11:19:07.059Z,51.90
2023-05-19T11:21:49.018Z,52.10
2023-05-19T11:24:35.851Z,52.00
2023-05-19T11:27:21.882Z,51.50
2023-05-19T11:29:49.410Z,51.00
2023-05-19T11:32:16.414Z,51.30
2023-05-19T11:34:44.625Z,50.50
2023-05-19T11:37:11.779Z,50.60
2023-05-19T11:39:39.472Z,51.00
2023-05-19T11:42:06.552Z,50.50
2023-05-19T11:44:33.409Z,50.60
2023-05-19T11:47:02.655Z,51.40
2023-05-19T11:49:29.727Z,51.30
2023-05-19T11:51:57.464Z,51.50
2023-05-19T11:54:32.036Z,50.60
2023-05-19T11:57:03.791Z,50.20
2023-05-19T11:59:33.466Z,50.50
2023-05-19T12:02:15.657Z,50.00
2023-05-19T12:04:42.617Z,49.90
2023-05-19T12:07:12.061Z,49.00
2023-05-19T12:09:39.679Z,49.40
2023-05-19T12:12:07.595Z,49.40
2023-05-19T12:14:35.794Z,50.10
2023-05-19T12:17:16.644Z,50.40
2023-05-19T12:19:43.969Z,50.60
2023-05-19T12:22:10.900Z,50.20
2023-05-19T12:24:38.066Z,50.10
2023-05-19T12:27:28.147Z,50.10
2023-05-19T12:29:56.107Z,49.90
2023-05-19T12:32:27.607Z,49.60
2023-05-19T12:34:57.763Z,49.10
2023-05-19T12:37:29.934Z,48.70
2023-05-19T12:39:57.392Z,48.60
2023-05-19T12:42:26.901Z,48.00
2023-05-19T12:44:54.757Z,48.00
2023-05-19T12:47:22.210Z,48.20
2023-05-19T12:50:03.773Z,48.70
2023-05-19T12:52:32.589Z,48.60
2023-05-19T12:55:01.889Z,48.40
2023-05-19T12:57:32.420Z,47.00
2023-05-19T13:00:06.959Z,46.80
2023-05-19T13:02:35.414Z,47.10
2023-05-19T13:05:03.676Z,46.70
2023-05-19T13:07:30.544Z,46.90
2023-05-19T13:09:59.613Z,46.80
2023-05-19T13:12:26.415Z,47.00
2023-05-19T13:14:55.455Z,47.40
2023-05-19T13:17:22.728Z,46.30
2023-05-19T13:19:49.651Z,45.90
2023-05-19T13:22:16.563Z,45.70
2023-05-19T13:24:43.379Z,46.20
2023-05-19T13:27:13.228Z,46.30
2023-05-19T13:29:39.980Z,46.50
2023-05-19T13:32:10.018Z,46.60
2023-05-19T13:34:36.888Z,46.20
2023-05-19T13:37:03.765Z,45.90
2023-05-19T13:39:30.893Z,45.80
2023-05-19T13:41:58.077Z,45.40
2023-05-19T13:44:25.839Z,45.50
2023-05-19T13:46:52.567Z,46.10
2023-05-19T13:49:19.540Z,45.90
2023-05-19T13:51:46.205Z,45.90
2023-05-19T13:54:13.013Z,45.60
2023-05-19T13:56:39.758Z,45.40
2023-05-19T13:59:07.099Z,44.80
2023-05-19T14:01:33.962Z,44.50
2023-05-19T14:04:01.372Z,44.80
2023-05-19T14:06:33.306Z,45.10
2023-05-19T14:09:10.813Z,45.50
2023-05-19T14:11:37.993Z,45.40
2023-05-19T14:14:04.883Z,44.70
2023-05-19T14:16:32.382Z,44.60
2023-05-19T14:18:59.148Z,44.50
2023-05-19T14:21:26.830Z,44.70
2023-05-19T14:23:53.686Z,44.40
2023-05-19T14:26:21.933Z,44.50
2023-05-19T14:28:48.798Z,44.70
2023-05-19T14:31:15.928Z,44.50
2023-05-19T14:33:55.037Z,44.50
2023-05-19T14:36:29.034Z,44.80
2023-05-19T14:39:00.595Z,45.30
2023-05-19T14:41:27.632Z,44.40
2023-05-19T14:43:54.443Z,44.40
2023-05-19T14:46:21.475Z,43.90
2023-05-19T14:48:48.198Z,44.10
2023-05-19T14:51:15.008Z,44.00
2023-05-19T14:53:41.648Z,44.10
2023-05-19T14:56:08.359Z,44.00
2023-05-19T14:58:35.606Z,44.10
2023-05-19T15:01:02.557Z,44.10
2023-05-19T15:03:29.288Z,44.30
2023-05-19T15:05:56.175Z,44.30
2023-05-19T15:08:23.507Z,44.60
2023-05-19T15:10:50.587Z,44.70
2023-05-19T15:13:18.997Z,45.00
2023-05-19T15:15:46.176Z,45.00
2023-05-19T15:18:13.285Z,44.70
2023-05-19T15:20:40.408Z,44.70
2023-05-19T15:23:07.179Z,44.70
2023-05-19T15:25:33.967Z,45.00
2023-05-19T15:28:00.870Z,44.60
2023-05-19T15:30:27.693Z,44.00
2023-05-19T15:32:54.886Z,43.80
2023-05-19T15:35:21.680Z,44.10
2023-05-19T15:37:48.826Z,44.40
2023-05-19T15:40:15.626Z,44.60
2023-05-19T15:42:42.610Z,44.60
2023-05-19T15:45:09.695Z,44.60
2023-05-19T15:47:36.446Z,44.30
2023-05-19T15:50:03.506Z,44.30
2023-05-19T15:52:30.339Z,44.30
2023-05-19T15:54:59.018Z,44.40
2023-05-19T15:57:25.901Z,44.40
2023-05-19T15:59:52.858Z,44.40
2023-05-19T16:02:19.895Z,44.00
2023-05-19T16:04:46.936Z,43.90
2023-05-19T16:07:13.950Z,44.00
2023-05-19T16:09:41.220Z,44.40
2023-05-19T16:12:08.130Z,44.50
2023-05-19T16:14:36.760Z,44.60
2023-05-19T16:17:04.657Z,44.70
2023-05-19T16:19:31.656Z,44.80
2023-05-19T16:21:58.583Z,44.80
2023-05-19T16:24:25.462Z,44.70
2023-05-19T16:26:53.885Z,44.70
2023-05-19T16:29:22.373Z,44.30
2023-05-19T16:31:49.179Z,44.30
2023-05-19T16:34:15.977Z,43.90
2023-05-19T16:36:42.751Z,43.80
2023-05-19T16:39:09.560Z,43.50
2023-05-19T16:41:37.321Z,43.20
2023-05-19T16:44:04.402Z,43.30
2023-05-19T16:46:31.711Z,43.30
2023-05-19T16:48:58.664Z,43.30
2023-05-19T16:51:26.481Z,43.50
2023-05-19T16:53:53.275Z,43.20
2023-05-19T16:56:20.071Z,43.20
2023-05-19T16:58:46.985Z,43.40
2023-05-19T17:01:14.267Z,42.90
2023-05-19T17:03:41.243Z,43.10
2023-05-19T17:06:08.266Z,43.20
2023-05-19T17:08:35.172Z,42.60
2023-05-19T17:11:02.052Z,42.10
2023-05-19T17:13:29.840Z,42.00
2023-05-19T17:15:56.629Z,42.10
2023-05-19T17:18:23.465Z,41.80
2023-05-19T17:20:50.970Z,41.40
2023-05-19T17:23:18.013Z,40.40
2023-05-19T17:25:44.675Z,40.20
2023-05-19T17:28:11.842Z,39.80
2023-05-19T17:30:39.554Z,39.50
2023-05-19T17:33:06.814Z,39.70
2023-05-19T17:35:33.768Z,40.10
2023-05-19T17:38:01.517Z,40.40
2023-05-19T17:40:28.448Z,41.80
2023-05-19T17:42:55.382Z,41.50
2023-05-19T17:45:22.248Z,41.20
2023-05-19T17:47:51.449Z,41.60
2023-05-19T17:50:18.298Z,41.70
2023-05-19T17:52:45.081Z,41.40
2023-05-19T17:55:12.472Z,42.10
2023-05-19T17:57:40.033Z,42.40
2023-05-19T18:00:07.853Z,42.60
2023-05-19T18:02:35.604Z,42.90
2023-05-19T18:05:02.644Z,43.00
2023-05-19T18:07:31.453Z,43.10
2023-05-19T18:09:59.289Z,43.10
2023-05-19T18:12:26.187Z,43.30
2023-05-19T18:14:53.017Z,43.30
2023-05-19T18:17:19.826Z,43.50
2023-05-19T18:19:48.866Z,43.40
2023-05-19T18:22:15.780Z,43.60
2023-05-19T18:24:42.514Z,43.60
2023-05-19T18:27:09.719Z,43.60
2023-05-19T18:29:36.474Z,43.60
2023-05-19T18:32:03.414Z,43.70
2023-05-19T18:34:30.418Z,43.70
2023-05-19T18:36:57.402Z,43.70
2023-05-19T18:39:24.157Z,43.70
2023-05-19T18:41:51.148Z,43.80
2023-05-19T18:44:17.826Z,43.70
2023-05-19T18:46:44.625Z,43.70
2023-05-19T18:49:11.947Z,43.70
2023-05-19T18:51:38.902Z,43.70
2023-05-19T18:54:05.925Z,43.70
2023-05-19T18:56:33.292Z,43.70
2023-05-19T18:58:59.987Z,43.60
2023-05-19T19:01:26.931Z,43.70
2023-05-19T19:03:53.933Z,43.60
2023-05-19T19:06:22.716Z,43.60
2023-05-19T19:08:50.013Z,43.70
2023-05-19T19:11:20.096Z,43.80
2023-05-19T19:13:50.998Z,43.80
2023-05-19T19:16:17.761Z,43.90
2023-05-19T19:18:44.765Z,44.10
2023-05-19T19:21:11.784Z,44.30
2023-05-19T19:23:38.813Z,44.60
2023-05-19T19:26:08.512Z,44.60
2023-05-19T19:28:35.326Z,44.60
2023-05-19T19:31:02.050Z,44.70
2023-05-19T19:33:29.030Z,44.70
2023-05-19T19:35:56.036Z,44.70
2023-05-19T19:38:22.766Z,44.70
2023-05-19T19:40:51.154Z,44.80
2023-05-19T19:43:18.235Z,44.80
2023-05-19T19:45:45.003Z,45.00
2023-05-19T19:48:12.238Z,45.00
2023-05-19T19:50:39.106Z,45.20
2023-05-19T19:53:06.004Z,45.30
2023-05-19T19:55:32.842Z,45.60
2023-05-19T19:57:59.673Z,45.90
2023-05-19T20:00:26.484Z,46.30
2023-05-19T20:03:03.558Z,46.60
2023-05-19T20:05:32.151Z,47.00
2023-05-19T20:07:58.976Z,47.20
2023-05-19T20:10:26.005Z,47.10
2023-05-19T20:12:53.021Z,47.80
2023-05-19T20:15:19.987Z,47.10
2023-05-19T20:17:49.094Z,47.20
2023-05-19T20:20:16.171Z,47.30
2023-05-19T20:22:45.780Z,47.40
2023-05-19T20:25:12.653Z,47.50
2023-05-19T20:27:39.546Z,47.50
2023-05-19T20:30:07.128Z,47.60
2023-05-19T20:32:34.012Z,47.90
2023-05-19T20:35:00.831Z,48.00
2023-05-19T20:37:27.616Z,47.90
2023-05-19T20:39:54.355Z,47.80
2023-05-19T20:42:21.128Z,47.90
2023-05-19T20:44:48.231Z,48.00
2023-05-19T20:47:15.186Z,48.20
2023-05-19T20:49:44.503Z,48.20
2023-05-19T20:52:11.471Z,48.10
2023-05-19T20:54:38.301Z,48.20
2023-05-19T20:57:09.030Z,48.30
2023-05-19T20:59:36.310Z,48.30
2023-05-19T21:02:03.310Z,48.50
2023-05-19T21:04:30.438Z,48.80
2023-05-19T21:06:57.139Z,49.20
2023-05-19T21:09:23.897Z,49.20
2023-05-19T21:11:53.240Z,49.40
2023-05-19T21:14:20.614Z,49.60
2023-05-19T21:16:47.963Z,49.80
2023-05-19T21:19:14.845Z,49.80
2023-05-19T21:21:42.837Z,49.80
2023-05-19T21:24:11.425Z,49.70
2023-05-19T21:26:38.666Z,49.80
2023-05-19T21:29:05.819Z,49.80
2023-05-19T21:31:32.893Z,49.80
2023-05-19T21:33:59.741Z,49.80
2023-05-19T21:36:26.846Z,49.90
2023-05-19T21:38:53.625Z,50.00
2023-05-19T21:41:21.166Z,50.10
2023-05-19T21:43:47.849Z,50.20
2023-05-19T21:46:14.666Z,50.30
2023-05-19T21:48:41.534Z,50.30
2023-05-19T21:51:08.503Z,50.30
2023-05-19T21:53:35.512Z,50.30
2023-05-19T21:56:02.337Z,50.30
2023-05-19T21:58:29.744Z,50.30
2023-05-19T22:00:56.429Z,50.50
2023-05-19T22:03:23.523Z,50.50
2023-05-19T22:05:51.738Z,50.70
2023-05-19T22:08:19.414Z,50.80
2023-05-19T22:10:50.847Z,50.90
2023-05-19T22:13:17.752Z,51.00
2023-05-19T22:15:44.985Z,51.00
2023-05-19T22:18:11.878Z,51.00
2023-05-19T22:20:38.735Z,51.10
2023-05-19T22:23:05.842Z,51.30
2023-05-19T22:25:32.552Z,51.50
2023-05-19T22:28:01.080Z,51.60
2023-05-19T22:30:27.969Z,51.70
2023-05-19T22:32:54.962Z,51.90
2023-05-19T22:35:21.869Z,51.80
2023-05-19T22:37:48.709Z,52.00
2023-05-19T22:40:15.439Z,52.10
2023-05-19T22:42:42.213Z,52.10
2023-05-19T22:45:09.319Z,52.10
2023-05-19T22:47:36.171Z,52.30
2023-05-19T22:50:03.172Z,52.30
2023-05-19T22:52:29.972Z,52.40
2023-05-19T22:54:57.327Z,52.50
2023-05-19T22:57:24.056Z,52.50
2023-05-19T22:59:50.900Z,52.60
2023-05-19T23:02:18.217Z,52.50
2023-05-19T23:04:45.066Z,52.60
2023-05-19T23:07:11.806Z,52.60
2023-05-19T23:09:38.525Z,52.80
2023-05-19T23:12:05.531Z,52.80
2023-05-19T23:14:32.339Z,53.40
2023-05-19T23:16:59.231Z,52.70
2023-05-19T23:19:25.974Z,52.60
2023-05-19T23:21:52.819Z,52.60
2023-05-19T23:24:19.582Z,52.60
2023-05-19T23:26:46.495Z,52.80
2023-05-19T23:29:14.721Z,53.00
2023-05-19T23:31:41.781Z,53.00
2023-05-19T23:34:08.779Z,53.20
2023-05-19T23:36:36.436Z,53.40
2023-05-19T23:39:03.273Z,53.60
2023-05-19T23:41:30.177Z,53.80
2023-05-19T23:43:57.082Z,53.90
2023-05-19T23:46:24.012Z,54.10
2023-05-19T23:48:51.024Z,54.20
2023-05-19T23:51:17.935Z,54.40
2023-05-19T23:53:44.653Z,54.40
2023-05-19T23:56:11.687Z,54.30
2023-05-19T23:58:38.387Z,54.30
